sensor_id;sensor_type;location;lat;lon;timestamp;pressure;altitude;pressure_sealevel;temperature;humidity
59831;BME280;45711;50.108;13.712;2023-05-21T00:00:35;98010.41;;;14.60;79.59
59831;BME280;45711;50.108;13.712;2023-05-21T00:03:00;98008.97;;;14.63;79.27
59831;BME280;45711;50.108;13.712;2023-05-21T00:05:27;97993.53;;;14.68;77.20
59831;BME280;45711;50.108;13.712;2023-05-21T00:07:53;97999.63;;;14.46;79.70
59831;BME280;45711;50.108;13.712;2023-05-21T00:10:19;97996.50;;;14.80;79.37
59831;BME280;45711;50.108;13.712;2023-05-21T00:12:45;97993.81;;;15.25;77.12
59831;BME280;45711;50.108;13.712;2023-05-21T00:15:11;97993.56;;;15.36;76.57
59831;BME280;45711;50.108;13.712;2023-05-21T00:17:36;97981.19;;;15.34;76.80
59831;BME280;45711;50.108;13.712;2023-05-21T00:20:02;97989.75;;;14.92;78.46
59831;BME280;45711;50.108;13.712;2023-05-21T00:22:32;97991.78;;;14.86;78.12
59831;BME280;45711;50.108;13.712;2023-05-21T00:24:58;97991.78;;;14.86;77.38
59831;BME280;45711;50.108;13.712;2023-05-21T00:27:23;97990.94;;;14.63;77.59
59831;BME280;45711;50.108;13.712;2023-05-21T00:29:52;97990.44;;;14.47;76.78
59831;BME280;45711;50.108;13.712;2023-05-21T00:32:18;97985.25;;;14.23;77.05
59831;BME280;45711;50.108;13.712;2023-05-21T00:34:43;97993.25;;;14.01;79.01
59831;BME280;45711;50.108;13.712;2023-05-21T00:37:09;97996.59;;;13.79;81.36
59831;BME280;45711;50.108;13.712;2023-05-21T00:39:36;97985.13;;;13.60;82.88
59831;BME280;45711;50.108;13.712;2023-05-21T00:42:01;97989.81;;;13.54;84.20
59831;BME280;45711;50.108;13.712;2023-05-21T00:44:28;97981.91;;;13.44;84.98
59831;BME280;45711;50.108;13.712;2023-05-21T00:46:58;97983.59;;;13.40;84.61
59831;BME280;45711;50.108;13.712;2023-05-21T00:49:26;97986.75;;;13.28;85.12
59831;BME280;45711;50.108;13.712;2023-05-21T00:51:52;97980.69;;;13.17;86.22
59831;BME280;45711;50.108;13.712;2023-05-21T00:54:19;97987.56;;;13.28;86.12
59831;BME280;45711;50.108;13.712;2023-05-21T00:56:46;97989.44;;;12.90;87.57
59831;BME280;45711;50.108;13.712;2023-05-21T00:59:14;97983.78;;;13.11;87.15
59831;BME280;45711;50.108;13.712;2023-05-21T01:01:41;97983.03;;;13.05;87.02
59831;BME280;45711;50.108;13.712;2023-05-21T01:04:07;97982.66;;;13.30;83.45
59831;BME280;45711;50.108;13.712;2023-05-21T01:06:33;97986.94;;;13.31;80.96
59831;BME280;45711;50.108;13.712;2023-05-21T01:09:00;97988.00;;;12.98;81.72
59831;BME280;45711;50.108;13.712;2023-05-21T01:11:36;97983.22;;;12.76;83.07
59831;BME280;45711;50.108;13.712;2023-05-21T01:14:05;97987.63;;;12.86;83.92
59831;BME280;45711;50.108;13.712;2023-05-21T01:16:34;97983.66;;;13.02;84.04
59831;BME280;45711;50.108;13.712;2023-05-21T01:19:01;97987.44;;;12.63;85.34
59831;BME280;45711;50.108;13.712;2023-05-21T01:21:28;97979.16;;;12.60;86.17
59831;BME280;45711;50.108;13.712;2023-05-21T01:23:56;97980.44;;;12.62;86.09
59831;BME280;45711;50.108;13.712;2023-05-21T01:26:22;97973.69;;;12.46;87.77
59831;BME280;45711;50.108;13.712;2023-05-21T01:28:50;97983.53;;;12.31;88.22
59831;BME280;45711;50.108;13.712;2023-05-21T01:31:25;97972.38;;;12.62;86.89
59831;BME280;45711;50.108;13.712;2023-05-21T01:33:54;97977.41;;;12.69;85.47
59831;BME280;45711;50.108;13.712;2023-05-21T01:36:24;97977.72;;;12.67;83.75
59831;BME280;45711;50.108;13.712;2023-05-21T01:38:59;97974.34;;;12.14;85.11
59831;BME280;45711;50.108;13.712;2023-05-21T01:41:28;97972.44;;;11.95;86.63
59831;BME280;45711;50.108;13.712;2023-05-21T01:43:57;97975.50;;;11.83;88.10
59831;BME280;45711;50.108;13.712;2023-05-21T01:46:26;97977.91;;;11.85;87.60
59831;BME280;45711;50.108;13.712;2023-05-21T01:48:54;97979.31;;;11.48;89.30
59831;BME280;45711;50.108;13.712;2023-05-21T01:51:20;97982.94;;;11.33;89.83
59831;BME280;45711;50.108;13.712;2023-05-21T01:53:46;97979.47;;;11.33;91.00
59831;BME280;45711;50.108;13.712;2023-05-21T01:56:13;97985.28;;;11.40;91.29
59831;BME280;45711;50.108;13.712;2023-05-21T01:58:40;97981.72;;;11.50;90.95
59831;BME280;45711;50.108;13.712;2023-05-21T02:01:06;97984.97;;;11.71;89.55
59831;BME280;45711;50.108;13.712;2023-05-21T02:03:31;97981.97;;;11.48;90.72
59831;BME280;45711;50.108;13.712;2023-05-21T02:05:57;97984.03;;;11.32;91.24
59831;BME280;45711;50.108;13.712;2023-05-21T02:08:22;97986.72;;;11.27;91.30
59831;BME280;45711;50.108;13.712;2023-05-21T02:10:49;97989.63;;;11.31;91.55
59831;BME280;45711;50.108;13.712;2023-05-21T02:13:17;97981.00;;;11.68;88.78
59831;BME280;45711;50.108;13.712;2023-05-21T02:15:46;97971.94;;;11.64;89.15
59831;BME280;45711;50.108;13.712;2023-05-21T02:18:12;97982.53;;;11.74;88.80
59831;BME280;45711;50.108;13.712;2023-05-21T02:20:42;97986.94;;;11.94;86.85
59831;BME280;45711;50.108;13.712;2023-05-21T02:23:08;97984.97;;;11.71;87.40
59831;BME280;45711;50.108;13.712;2023-05-21T02:25:34;97987.78;;;11.61;88.70
59831;BME280;45711;50.108;13.712;2023-05-21T02:28:00;97987.81;;;11.55;88.91
59831;BME280;45711;50.108;13.712;2023-05-21T02:30:28;97985.16;;;11.55;89.11
59831;BME280;45711;50.108;13.712;2023-05-21T02:32:53;97984.09;;;11.51;88.54
59831;BME280;45711;50.108;13.712;2023-05-21T02:35:19;97992.50;;;11.40;87.12
59831;BME280;45711;50.108;13.712;2023-05-21T02:37:45;97992.22;;;11.12;89.41
59831;BME280;45711;50.108;13.712;2023-05-21T02:40:11;97996.03;;;11.01;90.35
59831;BME280;45711;50.108;13.712;2023-05-21T02:42:38;97985.50;;;10.75;90.87
59831;BME280;45711;50.108;13.712;2023-05-21T02:45:05;97986.09;;;10.67;92.44
59831;BME280;45711;50.108;13.712;2023-05-21T02:47:32;97983.25;;;10.93;91.37
59831;BME280;45711;50.108;13.712;2023-05-21T02:49:59;97982.19;;;11.23;90.09
59831;BME280;45711;50.108;13.712;2023-05-21T02:52:26;97986.75;;;11.22;90.24
59831;BME280;45711;50.108;13.712;2023-05-21T02:54:52;97982.78;;;11.20;90.23
59831;BME280;45711;50.108;13.712;2023-05-21T02:57:18;97975.22;;;10.93;90.29
59831;BME280;45711;50.108;13.712;2023-05-21T02:59:44;97978.91;;;11.02;90.17
59831;BME280;45711;50.108;13.712;2023-05-21T03:02:10;97984.78;;;11.04;90.21
59831;BME280;45711;50.108;13.712;2023-05-21T03:04:37;97977.06;;;10.97;89.09
59831;BME280;45711;50.108;13.712;2023-05-21T03:07:03;97984.81;;;10.99;88.81
59831;BME280;45711;50.108;13.712;2023-05-21T03:09:29;97977.16;;;10.82;89.09
59831;BME280;45711;50.108;13.712;2023-05-21T03:11:55;97978.75;;;10.83;89.40
59831;BME280;45711;50.108;13.712;2023-05-21T03:14:21;97985.41;;;10.91;88.89
59831;BME280;45711;50.108;13.712;2023-05-21T03:16:47;97978.28;;;10.76;89.50
59831;BME280;45711;50.108;13.712;2023-05-21T03:19:13;97971.09;;;10.71;90.34
59831;BME280;45711;50.108;13.712;2023-05-21T03:21:41;97971.88;;;10.72;89.09
59831;BME280;45711;50.108;13.712;2023-05-21T03:24:07;97975.34;;;10.72;90.08
59831;BME280;45711;50.108;13.712;2023-05-21T03:26:34;97984.59;;;10.90;89.22
59831;BME280;45711;50.108;13.712;2023-05-21T03:29:00;97964.41;;;10.69;89.55
59831;BME280;45711;50.108;13.712;2023-05-21T03:31:26;97979.00;;;10.87;88.86
59831;BME280;45711;50.108;13.712;2023-05-21T03:33:52;97975.09;;;10.69;89.11
59831;BME280;45711;50.108;13.712;2023-05-21T03:36:18;97976.03;;;10.44;90.52
59831;BME280;45711;50.108;13.712;2023-05-21T03:38:45;97973.91;;;10.46;89.86
59831;BME280;45711;50.108;13.712;2023-05-21T03:41:11;97975.19;;;10.53;89.98
59831;BME280;45711;50.108;13.712;2023-05-21T03:43:37;97972.72;;;10.62;90.44
59831;BME280;45711;50.108;13.712;2023-05-21T03:46:02;97971.88;;;10.72;90.55
59831;BME280;45711;50.108;13.712;2023-05-21T03:48:28;97972.44;;;10.69;89.50
59831;BME280;45711;50.108;13.712;2023-05-21T03:50:53;97983.13;;;10.69;90.29
59831;BME280;45711;50.108;13.712;2023-05-21T03:53:19;97985.25;;;10.72;89.85
59831;BME280;45711;50.108;13.712;2023-05-21T03:55:46;97979.56;;;10.83;89.54
59831;BME280;45711;50.108;13.712;2023-05-21T03:58:19;97985.84;;;11.03;88.00
59831;BME280;45711;50.108;13.712;2023-05-21T04:00:44;97983.09;;;11.13;87.60
59831;BME280;45711;50.108;13.712;2023-05-21T04:03:10;97983.03;;;11.23;85.22
59831;BME280;45711;50.108;13.712;2023-05-21T04:05:35;97978.06;;;11.06;85.67
59831;BME280;45711;50.108;13.712;2023-05-21T04:08:01;97976.88;;;10.83;86.83
59831;BME280;45711;50.108;13.712;2023-05-21T04:10:27;97980.75;;;10.67;88.13
59831;BME280;45711;50.108;13.712;2023-05-21T04:12:54;97973.69;;;10.81;87.80
59831;BME280;45711;50.108;13.712;2023-05-21T04:15:19;97982.63;;;11.06;86.70
59831;BME280;45711;50.108;13.712;2023-05-21T04:17:45;97979.97;;;11.01;87.45
59831;BME280;45711;50.108;13.712;2023-05-21T04:20:12;97977.56;;;10.99;87.32
59831;BME280;45711;50.108;13.712;2023-05-21T04:22:39;97986.38;;;11.05;86.88
59831;BME280;45711;50.108;13.712;2023-05-21T04:25:05;97973.72;;;11.16;87.45
59831;BME280;45711;50.108;13.712;2023-05-21T04:27:31;97981.09;;;10.95;88.28
59831;BME280;45711;50.108;13.712;2023-05-21T04:29:58;97980.38;;;10.84;89.22
59831;BME280;45711;50.108;13.712;2023-05-21T04:32:23;97982.44;;;10.92;88.45
59831;BME280;45711;50.108;13.712;2023-05-21T04:34:49;97985.91;;;10.98;88.68
59831;BME280;45711;50.108;13.712;2023-05-21T04:37:15;97979.31;;;11.19;88.58
59831;BME280;45711;50.108;13.712;2023-05-21T04:39:43;97980.59;;;11.56;87.04
59831;BME280;45711;50.108;13.712;2023-05-21T04:42:09;97986.91;;;11.65;87.19
59831;BME280;45711;50.108;13.712;2023-05-21T04:44:35;97978.59;;;11.96;86.07
59831;BME280;45711;50.108;13.712;2023-05-21T04:47:03;97982.69;;;12.12;86.27
59831;BME280;45711;50.108;13.712;2023-05-21T04:49:29;97983.72;;;12.16;86.65
59831;BME280;45711;50.108;13.712;2023-05-21T04:51:55;97970.41;;;12.30;86.38
59831;BME280;45711;50.108;13.712;2023-05-21T04:54:21;97985.88;;;12.38;86.48
59831;BME280;45711;50.108;13.712;2023-05-21T04:56:47;97978.44;;;12.30;87.04
59831;BME280;45711;50.108;13.712;2023-05-21T04:59:12;97979.25;;;12.49;86.05
59831;BME280;45711;50.108;13.712;2023-05-21T05:01:38;97972.69;;;12.42;87.24
59831;BME280;45711;50.108;13.712;2023-05-21T05:04:05;97969.06;;;12.51;86.68
59831;BME280;45711;50.108;13.712;2023-05-21T05:06:31;97987.06;;;12.89;85.97
59831;BME280;45711;50.108;13.712;2023-05-21T05:08:57;97977.97;;;13.22;84.67
59831;BME280;45711;50.108;13.712;2023-05-21T05:11:22;97975.50;;;13.26;84.43
59831;BME280;45711;50.108;13.712;2023-05-21T05:13:48;97974.00;;;13.15;86.39
59831;BME280;45711;50.108;13.712;2023-05-21T05:16:13;97971.13;;;13.11;87.30
59831;BME280;45711;50.108;13.712;2023-05-21T05:18:42;97975.50;;;13.26;87.33
59831;BME280;45711;50.108;13.712;2023-05-21T05:21:09;97968.28;;;13.21;87.63
59831;BME280;45711;50.108;13.712;2023-05-21T05:23:34;97972.00;;;13.25;87.73
59831;BME280;45711;50.108;13.712;2023-05-21T05:26:00;97981.88;;;13.63;86.78
59831;BME280;45711;50.108;13.712;2023-05-21T05:28:25;97969.25;;;13.44;87.16
59831;BME280;45711;50.108;13.712;2023-05-21T05:30:51;97976.06;;;13.55;87.89
59831;BME280;45711;50.108;13.712;2023-05-21T05:33:17;97983.25;;;13.74;87.04
59831;BME280;45711;50.108;13.712;2023-05-21T05:35:42;97982.78;;;13.86;87.33
59831;BME280;45711;50.108;13.712;2023-05-21T05:38:09;97978.41;;;14.17;86.23
59831;BME280;45711;50.108;13.712;2023-05-21T05:40:35;97980.09;;;13.99;87.55
59831;BME280;45711;50.108;13.712;2023-05-21T05:43:01;97986.25;;;14.14;87.71
59831;BME280;45711;50.108;13.712;2023-05-21T05:45:26;97978.03;;;14.74;84.77
59831;BME280;45711;50.108;13.712;2023-05-21T05:47:54;97978.31;;;14.86;84.33
59831;BME280;45711;50.108;13.712;2023-05-21T05:50:20;97982.06;;;15.21;82.73
59831;BME280;45711;50.108;13.712;2023-05-21T05:52:47;97974.44;;;15.23;82.80
59831;BME280;45711;50.108;13.712;2023-05-21T05:55:14;97973.28;;;15.38;82.88
59831;BME280;45711;50.108;13.712;2023-05-21T05:57:40;97971.63;;;15.51;82.89
59831;BME280;45711;50.108;13.712;2023-05-21T06:00:07;97962.88;;;15.68;82.01
59831;BME280;45711;50.108;13.712;2023-05-21T06:02:36;97967.84;;;15.83;81.75
59831;BME280;45711;50.108;13.712;2023-05-21T06:05:02;97966.25;;;15.82;82.36
59831;BME280;45711;50.108;13.712;2023-05-21T06:07:28;97955.72;;;16.12;81.32
59831;BME280;45711;50.108;13.712;2023-05-21T06:10:03;97958.16;;;16.39;78.96
59831;BME280;45711;50.108;13.712;2023-05-21T06:12:32;97967.22;;;16.43;79.84
59831;BME280;45711;50.108;13.712;2023-05-21T06:15:00;97960.91;;;16.65;80.43
59831;BME280;45711;50.108;13.712;2023-05-21T06:17:26;97963.25;;;16.41;79.90
59831;BME280;45711;50.108;13.712;2023-05-21T06:19:51;97969.78;;;16.48;80.73
59831;BME280;45711;50.108;13.712;2023-05-21T06:22:17;97955.94;;;16.50;80.50
59831;BME280;45711;50.108;13.712;2023-05-21T06:24:42;97954.88;;;16.51;79.73
59831;BME280;45711;50.108;13.712;2023-05-21T06:27:08;97959.53;;;16.94;72.82
59831;BME280;45711;50.108;13.712;2023-05-21T06:29:35;97959.53;;;17.11;75.26
59831;BME280;45711;50.108;13.712;2023-05-21T06:32:01;97955.34;;;17.31;75.41
59831;BME280;45711;50.108;13.712;2023-05-21T06:34:26;97952.81;;;17.26;71.62
59831;BME280;45711;50.108;13.712;2023-05-21T06:36:53;97956.47;;;17.21;67.66
59831;BME280;45711;50.108;13.712;2023-05-21T06:39:19;97962.84;;;17.17;76.34
59831;BME280;45711;50.108;13.712;2023-05-21T06:41:47;97969.03;;;17.26;74.25
59831;BME280;45711;50.108;13.712;2023-05-21T06:44:13;97969.31;;;17.50;76.77
59831;BME280;45711;50.108;13.712;2023-05-21T06:46:41;97970.59;;;17.44;75.39
59831;BME280;45711;50.108;13.712;2023-05-21T06:49:07;97956.13;;;17.40;67.33
59831;BME280;45711;50.108;13.712;2023-05-21T06:51:33;97959.75;;;17.44;68.99
59831;BME280;45711;50.108;13.712;2023-05-21T06:53:58;97965.28;;;17.65;71.40
59831;BME280;45711;50.108;13.712;2023-05-21T06:56:24;97961.50;;;17.49;66.62
59831;BME280;45711;50.108;13.712;2023-05-21T06:58:50;97962.66;;;17.39;66.54
59831;BME280;45711;50.108;13.712;2023-05-21T07:01:16;97966.78;;;17.37;66.33
59831;BME280;45711;50.108;13.712;2023-05-21T07:03:43;97968.00;;;17.65;73.53
59831;BME280;45711;50.108;13.712;2023-05-21T07:06:09;97974.34;;;17.69;64.84
59831;BME280;45711;50.108;13.712;2023-05-21T07:08:41;97965.91;;;17.71;64.85
59831;BME280;45711;50.108;13.712;2023-05-21T07:11:06;97959.97;;;17.95;64.13
59831;BME280;45711;50.108;13.712;2023-05-21T07:13:33;97961.06;;;18.02;63.28
59831;BME280;45711;50.108;13.712;2023-05-21T07:16:01;97961.94;;;18.66;64.09
59831;BME280;45711;50.108;13.712;2023-05-21T07:18:27;97961.38;;;18.81;65.50
59831;BME280;45711;50.108;13.712;2023-05-21T07:20:54;97958.94;;;18.88;61.80
59831;BME280;45711;50.108;13.712;2023-05-21T07:23:21;97964.75;;;18.78;63.06
59831;BME280;45711;50.108;13.712;2023-05-21T07:25:47;97967.97;;;19.46;62.15
59831;BME280;45711;50.108;13.712;2023-05-21T07:28:12;97963.25;;;19.22;62.04
59831;BME280;45711;50.108;13.712;2023-05-21T07:30:38;97965.63;;;18.91;59.80
59831;BME280;45711;50.108;13.712;2023-05-21T07:33:04;97963.09;;;18.86;61.90
59831;BME280;45711;50.108;13.712;2023-05-21T07:35:29;97964.13;;;19.14;60.60
59831;BME280;45711;50.108;13.712;2023-05-21T07:37:56;97964.69;;;18.87;60.31
59831;BME280;45711;50.108;13.712;2023-05-21T07:40:22;97961.38;;;18.81;65.49
59831;BME280;45711;50.108;13.712;2023-05-21T07:42:47;97960.50;;;19.10;64.56
59831;BME280;45711;50.108;13.712;2023-05-21T07:45:13;97962.97;;;18.82;67.14
59831;BME280;45711;50.108;13.712;2023-05-21T07:47:39;97959.34;;;18.78;68.80
59831;BME280;45711;50.108;13.712;2023-05-21T07:50:05;97959.72;;;18.68;62.84
59831;BME280;45711;50.108;13.712;2023-05-21T07:52:33;97959.13;;;18.32;61.77
59831;BME280;45711;50.108;13.712;2023-05-21T07:55:01;97948.94;;;18.29;67.50
59831;BME280;45711;50.108;13.712;2023-05-21T07:57:27;97953.41;;;18.55;62.08
59831;BME280;45711;50.108;13.712;2023-05-21T07:59:52;97949.88;;;18.54;61.52
59831;BME280;45711;50.108;13.712;2023-05-21T08:02:18;97947.50;;;18.82;65.79
59831;BME280;45711;50.108;13.712;2023-05-21T08:04:43;97958.28;;;18.91;61.78
59831;BME280;45711;50.108;13.712;2023-05-21T08:07:09;97959.47;;;19.36;58.96
59831;BME280;45711;50.108;13.712;2023-05-21T08:09:35;97951.47;;;19.51;58.27
59831;BME280;45711;50.108;13.712;2023-05-21T08:12:02;97953.56;;;19.67;57.83
59831;BME280;45711;50.108;13.712;2023-05-21T08:14:28;97948.75;;;19.97;64.50
59831;BME280;45711;50.108;13.712;2023-05-21T08:16:54;97946.47;;;19.87;57.34
59831;BME280;45711;50.108;13.712;2023-05-21T08:19:20;97953.25;;;19.68;57.81
59831;BME280;45711;50.108;13.712;2023-05-21T08:21:45;97955.72;;;20.71;58.82
59831;BME280;45711;50.108;13.712;2023-05-21T08:24:11;97955.06;;;20.62;63.88
59831;BME280;45711;50.108;13.712;2023-05-21T08:26:37;97956.75;;;21.35;60.11
59831;BME280;45711;50.108;13.712;2023-05-21T08:29:04;97948.81;;;21.02;56.77
59831;BME280;45711;50.108;13.712;2023-05-21T08:31:30;97940.91;;;20.56;56.17
59831;BME280;45711;50.108;13.712;2023-05-21T08:33:55;97947.53;;;20.83;60.52
59831;BME280;45711;50.108;13.712;2023-05-21T08:36:21;97949.28;;;20.64;59.99
59831;BME280;45711;50.108;13.712;2023-05-21T08:38:47;97945.78;;;20.14;61.11
59831;BME280;45711;50.108;13.712;2023-05-21T08:41:13;97939.44;;;20.34;60.95
59831;BME280;45711;50.108;13.712;2023-05-21T08:43:40;97938.97;;;21.38;54.16
59831;BME280;45711;50.108;13.712;2023-05-21T08:46:07;97939.97;;;21.33;58.22
59831;BME280;45711;50.108;13.712;2023-05-21T08:48:36;97936.00;;;20.74;55.16
59831;BME280;45711;50.108;13.712;2023-05-21T08:51:03;97938.31;;;20.23;57.12
59831;BME280;45711;50.108;13.712;2023-05-21T08:53:42;97940.72;;;20.90;59.71
59831;BME280;45711;50.108;13.712;2023-05-21T08:56:11;97922.41;;;21.02;55.65
59831;BME280;45711;50.108;13.712;2023-05-21T08:58:40;97926.84;;;20.67;56.14
59831;BME280;45711;50.108;13.712;2023-05-21T09:01:13;97922.16;;;21.36;53.63
59831;BME280;45711;50.108;13.712;2023-05-21T09:03:43;97922.19;;;20.67;54.94
59831;BME280;45711;50.108;13.712;2023-05-21T09:06:10;97923.97;;;19.98;58.18
59831;BME280;45711;50.108;13.712;2023-05-21T09:08:42;97920.50;;;20.63;55.78
59831;BME280;45711;50.108;13.712;2023-05-21T09:11:08;97923.16;;;20.87;54.89
59831;BME280;45711;50.108;13.712;2023-05-21T09:13:37;97910.25;;;20.84;54.90
59831;BME280;45711;50.108;13.712;2023-05-21T09:16:03;97913.31;;;20.82;55.09
59831;BME280;45711;50.108;13.712;2023-05-21T09:18:33;97922.44;;;20.50;57.76
59831;BME280;45711;50.108;13.712;2023-05-21T09:21:22;97920.00;;;21.57;54.05
59831;BME280;45711;50.108;13.712;2023-05-21T09:23:58;97914.00;;;21.07;54.81
59831;BME280;45711;50.108;13.712;2023-05-21T09:26:24;97920.94;;;20.77;54.79
59831;BME280;45711;50.108;13.712;2023-05-21T09:28:56;97914.09;;;20.06;56.90
59831;BME280;45711;50.108;13.712;2023-05-21T09:31:22;97912.19;;;21.27;54.85
59831;BME280;45711;50.108;13.712;2023-05-21T09:33:49;97913.66;;;21.09;54.23
59831;BME280;45711;50.108;13.712;2023-05-21T09:36:17;97915.63;;;21.68;51.78
59831;BME280;45711;50.108;13.712;2023-05-21T09:38:44;97906.97;;;20.78;53.51
59831;BME280;45711;50.108;13.712;2023-05-21T09:41:10;97899.25;;;20.52;55.17
59831;BME280;45711;50.108;13.712;2023-05-21T09:43:36;97904.28;;;20.66;54.58
59831;BME280;45711;50.108;13.712;2023-05-21T09:46:09;97905.47;;;20.53;55.29
59831;BME280;45711;50.108;13.712;2023-05-21T09:48:39;97907.44;;;20.03;56.75
59831;BME280;45711;50.108;13.712;2023-05-21T09:51:11;97910.13;;;20.80;54.39
59831;BME280;45711;50.108;13.712;2023-05-21T09:53:51;97906.84;;;22.42;49.35
59831;BME280;45711;50.108;13.712;2023-05-21T09:56:22;97917.31;;;23.56;46.42
59831;BME280;45711;50.108;13.712;2023-05-21T09:58:50;97904.63;;;21.96;50.77
59831;BME280;45711;50.108;13.712;2023-05-21T10:01:21;97906.16;;;23.22;45.40
59831;BME280;45711;50.108;13.712;2023-05-21T10:03:54;97907.03;;;23.49;44.94
59831;BME280;45711;50.108;13.712;2023-05-21T10:06:25;97899.03;;;23.83;43.71
59831;BME280;45711;50.108;13.712;2023-05-21T10:08:53;97902.50;;;23.15;46.61
59831;BME280;45711;50.108;13.712;2023-05-21T10:11:22;97912.63;;;23.14;46.63
59831;BME280;45711;50.108;13.712;2023-05-21T10:13:54;97905.31;;;23.41;46.77
59831;BME280;45711;50.108;13.712;2023-05-21T10:16:23;97898.78;;;22.65;48.09
59831;BME280;45711;50.108;13.712;2023-05-21T10:18:51;97901.78;;;23.83;45.56
59831;BME280;45711;50.108;13.712;2023-05-21T10:21:25;97899.84;;;23.18;47.03
59831;BME280;45711;50.108;13.712;2023-05-21T10:23:52;97898.69;;;22.10;49.61
59831;BME280;45711;50.108;13.712;2023-05-21T10:26:21;97902.28;;;22.84;47.25
59831;BME280;45711;50.108;13.712;2023-05-21T10:28:48;97889.75;;;22.45;47.91
59831;BME280;45711;50.108;13.712;2023-05-21T10:31:17;97907.78;;;22.14;49.48
59831;BME280;45711;50.108;13.712;2023-05-21T10:33:44;97885.88;;;23.23;47.95
59831;BME280;45711;50.108;13.712;2023-05-21T10:36:10;97889.41;;;22.85;49.78
59831;BME280;45711;50.108;13.712;2023-05-21T10:38:38;97878.16;;;21.97;51.05
59831;BME280;45711;50.108;13.712;2023-05-21T10:41:04;97883.41;;;22.56;48.41
59831;BME280;45711;50.108;13.712;2023-05-21T10:43:49;97869.63;;;22.14;50.19
59831;BME280;45711;50.108;13.712;2023-05-21T10:49:29;97875.44;;;21.97;51.78
59831;BME280;45711;50.108;13.712;2023-05-21T10:52:07;97875.38;;;21.62;51.36
59831;BME280;45711;50.108;13.712;2023-05-21T10:55:03;97884.22;;;22.22;50.07
59831;BME280;45711;50.108;13.712;2023-05-21T10:57:52;97883.69;;;22.00;50.69
59831;BME280;45711;50.108;13.712;2023-05-21T11:00:20;97875.25;;;21.90;51.63
59831;BME280;45711;50.108;13.712;2023-05-21T11:02:49;97877.88;;;22.18;51.38
59831;BME280;45711;50.108;13.712;2023-05-21T11:05:37;97877.59;;;22.23;51.51
59831;BME280;45711;50.108;13.712;2023-05-21T11:08:05;97865.34;;;22.13;51.24
59831;BME280;45711;50.108;13.712;2023-05-21T11:10:50;97874.75;;;21.37;53.33
59831;BME280;45711;50.108;13.712;2023-05-21T11:13:16;97866.59;;;21.52;53.06
59831;BME280;45711;50.108;13.712;2023-05-21T11:16:21;97878.75;;;21.27;54.71
59831;BME280;45711;50.108;13.712;2023-05-21T11:19:01;97862.72;;;20.66;55.24
59831;BME280;45711;50.108;13.712;2023-05-21T11:21:32;97867.16;;;21.14;53.48
59831;BME280;45711;50.108;13.712;2023-05-21T11:24:00;97874.69;;;21.65;52.77
59831;BME280;45711;50.108;13.712;2023-05-21T11:26:29;97861.41;;;21.31;54.96
59831;BME280;45711;50.108;13.712;2023-05-21T11:29:19;97851.28;;;20.88;55.55
59831;BME280;45711;50.108;13.712;2023-05-21T11:31:46;97860.63;;;20.47;57.14
59831;BME280;45711;50.108;13.712;2023-05-21T11:34:12;97853.81;;;20.41;57.46
59831;BME280;45711;50.108;13.712;2023-05-21T11:36:38;97849.25;;;20.17;57.97
59831;BME280;45711;50.108;13.712;2023-05-21T11:39:08;97855.25;;;20.91;57.63
59831;BME280;45711;50.108;13.712;2023-05-21T11:41:50;97851.47;;;20.27;59.07
59831;BME280;45711;50.108;13.712;2023-05-21T11:44:16;97847.88;;;21.35;57.29
59831;BME280;45711;50.108;13.712;2023-05-21T11:46:41;97851.19;;;21.76;53.38
59831;BME280;45711;50.108;13.712;2023-05-21T11:49:07;97840.88;;;21.34;54.07
59831;BME280;45711;50.108;13.712;2023-05-21T11:51:33;97844.56;;;20.98;55.57
59831;BME280;45711;50.108;13.712;2023-05-21T11:54:00;97848.41;;;22.23;52.60
59831;BME280;45711;50.108;13.712;2023-05-21T11:56:27;97840.44;;;22.15;52.47
59831;BME280;45711;50.108;13.712;2023-05-21T11:58:54;97834.56;;;21.97;53.67
59831;BME280;45711;50.108;13.712;2023-05-21T12:01:21;97833.59;;;20.94;55.82
59831;BME280;45711;50.108;13.712;2023-05-21T12:03:50;97833.50;;;20.63;57.21
59831;BME280;45711;50.108;13.712;2023-05-21T12:06:16;97830.38;;;20.48;58.04
59831;BME280;45711;50.108;13.712;2023-05-21T12:08:42;97832.03;;;20.25;58.16
59831;BME280;45711;50.108;13.712;2023-05-21T12:11:09;97827.53;;;21.01;57.17
59831;BME280;45711;50.108;13.712;2023-05-21T12:13:35;97826.66;;;20.97;55.82
59831;BME280;45711;50.108;13.712;2023-05-21T12:16:05;97832.59;;;21.78;53.09
59831;BME280;45711;50.108;13.712;2023-05-21T12:18:31;97831.50;;;20.47;56.49
59831;BME280;45711;50.108;13.712;2023-05-21T12:20:56;97840.06;;;21.65;52.99
59831;BME280;45711;50.108;13.712;2023-05-21T12:23:22;97831.22;;;20.93;55.12
59831;BME280;45711;50.108;13.712;2023-05-21T12:25:48;97829.69;;;20.79;55.60
59831;BME280;45711;50.108;13.712;2023-05-21T12:28:16;97820.94;;;20.86;55.57
59831;BME280;45711;50.108;13.712;2023-05-21T12:30:41;97831.53;;;23.38;48.01
59831;BME280;45711;50.108;13.712;2023-05-21T12:33:08;97832.22;;;22.50;48.68
59831;BME280;45711;50.108;13.712;2023-05-21T12:35:36;97827.63;;;21.99;50.69
59831;BME280;45711;50.108;13.712;2023-05-21T12:38:01;97824.66;;;21.89;51.77
59831;BME280;45711;50.108;13.712;2023-05-21T12:40:33;97827.91;;;22.88;47.26
59831;BME280;45711;50.108;13.712;2023-05-21T12:43:00;97828.47;;;23.16;47.33
59831;BME280;45711;50.108;13.712;2023-05-21T12:45:27;97824.91;;;23.16;47.87
59831;BME280;45711;50.108;13.712;2023-05-21T12:47:53;97822.88;;;22.12;49.53
59831;BME280;45711;50.108;13.712;2023-05-21T12:50:21;97821.56;;;23.72;45.18
59831;BME280;45711;50.108;13.712;2023-05-21T12:52:47;97819.88;;;22.95;47.67
59831;BME280;45711;50.108;13.712;2023-05-21T12:55:13;97811.91;;;22.67;49.37